Florence, KY

2:21 AM EDT on June 02, 2015 (GMT -0400)
Bluestone | | Change Station
CLOSE
Current Station
Personal Weather Station
Location: Florence, KY
Elevation: 823 ft
Nearby Weather Stations

Elev 823 ft 38.99 °N, 84.69 °W | Updated 8 minutes ago

Overcast
Overcast
53.9 °F
Feels Like 53.9 °F
N
0.0
Wind Variable Wind from NE
Gusts 1.0 mph

Today
High -- | Low -- °F
--% Chance of Precip.
Yesterday
High -- | Low -- °F
Precip. -- in
6:14 AM 8:58 PM
Full, 100% visible
Pressure 30.13 in
Visibility 10.0 miles
Clouds Overcast 1300 ft
Dew Point 51 °F
Humidity 89%
Rainfall 0.00 in
Snow Depth Not available.
UV 0 out of 12
Pollen 6.50 out of 12
Air Quality Not available.
Flu Activity No Activity
METAR KCVG 020552Z 04009KT 10SM OVC013 12/09 A3013 RMK AO2 SLP202 T01220089 10144 20122 56006

More Conditions Fewer Conditions

Pressure 30.13 in
Visibility 10.0 miles
Clouds Overcast 1300 ft
Dew Point 51 °F
Humidity 89%
Rainfall 0.00 in
Snow Depth Not available.
UV 0 out of 12
Pollen 6.50 out of 12
Air Quality Not available.
Flu Activity No Activity
METAR KCVG 020552Z 04009KT 10SM OVC013 12/09 A3013 RMK AO2 SLP202 T01220089 10144 20122 56006

More Conditions Fewer Conditions

10-Day Weather Forecast

Almanac

Astronomy

Jun. 02, 2015 Rise Set
Actual Time
Civil Twilight
Nautical Twilight
Astronomical Twilight
Moon
Length of Visible Light
Length of Day
Tomorrow will be .
, % of the Moon is Illuminated

Today's Extremes

State Highs State Lows

Community

WunderPhotos

Upload Photos

1,825,923 photos uploaded!

WunderBlogs® & News

Nearby

Air Quality

  Air Quality AQ Index Pollutant
Not available.

Snow Depth

Station Depth Elevation

Earthquake Activity

City Distance Mag. Time & Date
Minimum magnitude displayed is 2.5.

Coastal Water Temperatures

Place Temperature

Stations

Nearby Weather Stations

Station Location Temp. Windchill Dew Point Humidity Wind Precip. Elev Updated Type